Time;durP1;ratioP1;P1;durP2;ratioP2;P2;SDS_P1;SDS_P2;PMS_P1;PMS_P2;Temp;Humidity;BMP_temperature;BMP_pressure;BME280_temperature;BME280_humidity;BME280_pressure;Samples;Min_cycle;Max_cycle;Signal;HPM_P1;HPM_P2
2022/01/30 00:01:48;;;;;;;7.82;1.33;;;;;;;5.57;66.64;98753.06;4170488;28;20042;-71
2022/01/30 00:03:48;;;;;;;3.95;1.13;;;;;;;5.56;65.76;98704.78;4170208;28;20057;-71
2022/01/30 00:05:49;;;;;;;4.18;1.30;;;;;;;5.60;64.72;98724.91;4170175;28;20084;-72
2022/01/30 00:07:49;;;;;;;4.75;1.05;;;;;;;5.55;65.48;98735.34;4169629;28;20048;-72
2022/01/30 00:09:51;;;;;;;7.95;1.10;;;;;;;5.57;64.53;98733.03;4169557;28;20373;-71
2022/01/30 00:11:58;;;;;;;3.22;1.25;;;;;;;5.51;65.77;98728.91;4170013;28;20049;-71
2022/01/30 00:14:17;;;;;;;5.45;1.98;;;;;;;5.57;65.53;98722.06;4170398;28;20178;-71
2022/01/30 00:16:20;;;;;;;5.13;1.65;;;;;;;5.49;65.55;98745.72;4170370;28;20176;-71
2022/01/30 00:20:26;;;;;;;4.57;1.40;;;;;;;5.52;65.15;98728.56;4170403;28;20048;-71
2022/01/30 00:24:44;;;;;;;5.95;1.60;;;;;;;5.55;66.05;98776.50;4169447;28;20045;-71
2022/01/30 00:26:46;;;;;;;3.67;1.27;;;;;;;5.56;66.61;98773.41;4169482;28;20049;-71
2022/01/30 00:28:47;;;;;;;5.15;1.60;;;;;;;5.47;67.84;98789.16;4170297;28;20136;-71
2022/01/30 00:30:48;;;;;;;7.30;1.58;;;;;;;5.24;72.13;98788.69;4169811;28;20081;-71
2022/01/30 00:32:48;;;;;;;10.20;1.73;;;;;;;4.75;78.17;98801.31;4170346;28;20045;-71
2022/01/30 00:34:49;;;;;;;4.97;1.42;;;;;;;4.67;80.55;98799.41;4170098;28;20041;-71
2022/01/30 00:36:49;;;;;;;6.88;1.45;;;;;;;4.40;82.60;98793.28;4168403;28;20131;-71
2022/01/30 00:38:49;;;;;;;9.98;1.98;;;;;;;4.37;82.90;98791.16;4169689;28;20071;-71
2022/01/30 00:40:51;;;;;;;7.43;1.55;;;;;;;4.32;84.17;98796.06;4168018;28;20120;-71
2022/01/30 00:42:52;;;;;;;3.65;1.30;;;;;;;4.25;84.73;98784.81;4168234;28;20045;-71
2022/01/30 00:44:52;;;;;;;7.70;2.35;;;;;;;4.23;86.11;98785.13;4167718;28;20418;-72
2022/01/30 00:46:54;;;;;;;6.60;1.42;;;;;;;4.16;85.77;98787.56;4165882;28;20520;-72
2022/01/30 00:48:55;;;;;;;7.88;1.70;;;;;;;4.21;85.96;98796.38;4167985;28;20102;-72
2022/01/30 00:50:55;;;;;;;6.40;1.77;;;;;;;4.18;85.99;98793.53;4167626;28;20044;-72
2022/01/30 00:52:57;;;;;;;3.65;1.10;;;;;;;4.06;87.34;98810.66;4167712;28;20152;-72
2022/01/30 00:54:57;;;;;;;4.03;1.35;;;;;;;4.02;88.33;98809.69;4168033;28;20730;-72
2022/01/30 00:56:58;;;;;;;6.32;2.10;;;;;;;3.97;88.97;98795.34;4168389;28;20045;-71
2022/01/30 00:58:58;;;;;;;5.22;1.60;;;;;;;3.88;89.37;98818.06;4168994;28;20041;-72
2022/01/30 01:00:58;;;;;;;4.40;1.00;;;;;;;3.88;89.51;98839.16;4169511;28;20394;-71
2022/01/30 01:03:00;;;;;;;4.20;1.15;;;;;;;3.82;89.52;98830.34;4169064;28;20075;-71
2022/01/30 01:05:04;;;;;;;2.08;1.23;;;;;;;3.78;89.41;98836.78;4169278;28;20076;-71
2022/01/30 01:07:06;;;;;;;6.55;1.75;;;;;;;3.71;89.33;98836.47;4167751;28;20105;-71
2022/01/30 01:09:10;;;;;;;4.00;1.60;;;;;;;3.61;87.20;98818.44;4169498;28;20123;-71
2022/01/30 01:11:29;;;;;;;4.13;1.52;;;;;;;3.57;86.81;98814.78;4168907;28;20127;-71
2022/01/30 01:24:58;;;;;;;4.28;1.33;;;;;;;3.32;84.88;98824.59;4172151;28;20087;-71
2022/01/30 01:26:58;;;;;;;4.32;1.27;;;;;;;3.27;86.05;98809.13;4171960;28;20435;-71
2022/01/30 01:28:58;;;;;;;7.70;2.13;;;;;;;3.21;86.33;98839.69;4172796;28;20504;-71
2022/01/30 01:30:59;;;;;;;14.60;1.40;;;;;;;3.21;86.17;98828.75;4172724;28;20205;-71
2022/01/30 01:33:02;;;;;;;5.35;1.17;;;;;;;3.18;86.67;98829.41;4172766;28;20051;-72
2022/01/30 01:35:02;;;;;;;;;;;;;;;3.11;87.60;98843.56;4173174;28;20083;-72
2022/01/30 01:37:07;;;;;;;6.28;1.58;;;;;;;3.03;88.52;98850.59;4171288;28;19921;-72
2022/01/30 01:39:08;;;;;;;7.57;1.77;;;;;;;3.01;88.91;98866.53;4169517;28;20048;-72
2022/01/30 01:41:08;;;;;;;5.00;1.50;;;;;;;3.06;88.60;98857.34;4163603;28;20052;-72
2022/01/30 01:43:09;;;;;;;6.60;2.05;;;;;;;3.03;88.48;98856.06;4166928;28;20040;-71
2022/01/30 01:45:09;;;;;;;5.60;1.77;;;;;;;3.08;88.30;98838.72;4165608;28;20053;-71
2022/01/30 01:47:11;;;;;;;4.70;1.30;;;;;;;3.14;87.10;98844.81;4163377;28;20087;-71
2022/01/30 01:49:18;;;;;;;2.72;1.40;;;;;;;3.17;86.96;98869.63;4165227;28;20049;-71
2022/01/30 01:51:25;;;;;;;4.45;1.65;;;;;;;3.18;86.84;98863.03;4163948;28;20279;-71
2022/01/30 01:53:25;;;;;;;4.65;1.67;;;;;;;3.10;86.79;98864.63;4170132;28;20048;-71
2022/01/30 01:55:26;;;;;;;10.77;1.70;;;;;;;3.12;85.70;98867.03;4170612;28;20051;-72
2022/01/30 01:57:27;;;;;;;9.68;1.92;;;;;;;3.14;85.77;98862.03;4170552;28;20048;-71
2022/01/30 01:59:28;;;;;;;6.38;2.22;;;;;;;3.04;86.40;98852.22;4171530;28;20349;-71
2022/01/30 02:01:29;;;;;;;3.22;1.50;;;;;;;3.03;86.59;98858.81;4171455;28;20041;-71
2022/01/30 02:03:29;;;;;;;5.32;1.58;;;;;;;3.07;85.81;98872.66;4171248;28;20041;-71
2022/01/30 02:05:33;;;;;;;9.57;1.85;;;;;;;3.05;86.06;98870.22;4171455;28;20076;-71
2022/01/30 02:09:39;;;;;;;8.55;1.80;;;;;;;3.06;85.51;98876.50;4171138;28;20381;-71
2022/01/30 02:11:43;;;;;;;2.45;1.58;;;;;;;3.04;85.30;98865.09;4169794;28;20090;-71
2022/01/30 02:14:38;;;;;;;8.32;2.10;;;;;;;3.00;85.82;98870.41;4170040;28;20041;-71
2022/01/30 02:27:32;;;;;;;8.55;2.22;;;;;;;2.91;84.97;98825.84;4168623;28;20047;-71
2022/01/30 02:29:32;;;;;;;7.38;1.35;;;;;;;2.90;84.53;98834.38;4170809;28;20056;-71
2022/01/30 02:31:36;;;;;;;9.13;2.10;;;;;;;2.89;84.15;98838.19;4169745;28;20749;-71
2022/01/30 02:33:36;;;;;;;9.75;1.90;;;;;;;2.96;83.31;98844.81;4171100;28;20136;-71
2022/01/30 02:35:37;;;;;;;7.68;2.03;;;;;;;2.91;83.09;98828.56;4170653;28;20573;-71
2022/01/30 02:37:37;;;;;;;7.53;1.48;;;;;;;2.98;82.76;98837.13;4169364;28;20102;-71
2022/01/30 02:39:38;;;;;;;12.80;2.15;;;;;;;3.01;81.78;98838.41;4171092;28;20469;-71
2022/01/30 02:41:39;;;;;;;9.18;2.70;;;;;;;3.06;81.58;98843.69;4170618;28;20574;-71
2022/01/30 02:43:53;;;;;;;13.65;2.33;;;;;;;3.04;82.17;98844.00;4169562;28;20049;-71
2022/01/30 02:46:11;;;;;;;11.85;2.67;;;;;;;3.08;81.31;98866.88;4169706;28;20605;-71
2022/01/30 02:48:17;;;;;;;9.65;2.45;;;;;;;3.17;80.89;98842.28;4168979;28;20041;-71
2022/01/30 02:50:33;;;;;;;8.60;2.70;;;;;;;3.18;80.42;98846.63;4170547;28;20033;-71
2022/01/30 02:52:36;;;;;;;6.82;1.55;;;;;;;3.23;79.64;98835.53;4168942;28;20075;-71
2022/01/30 02:54:38;;;;;;;8.05;1.83;;;;;;;3.26;80.57;98831.34;4170526;28;20539;-71
2022/01/30 02:56:40;;;;;;;11.27;1.83;;;;;;;3.23;80.88;98845.66;4169745;28;20057;-71
2022/01/30 02:58:40;;;;;;;11.70;1.83;;;;;;;3.22;81.74;98835.84;4169962;28;20842;-71
2022/01/30 03:00:40;;;;;;;9.68;2.47;;;;;;;3.09;82.87;98841.13;4169103;28;20330;-71
2022/01/30 03:02:40;;;;;;;9.77;1.90;;;;;;;3.15;81.97;98850.00;4170044;28;20045;-71
2022/01/30 03:04:41;;;;;;;9.88;2.10;;;;;;;3.19;81.81;98836.47;4170316;28;20102;-71
2022/01/30 03:06:42;;;;;;;15.20;2.10;;;;;;;3.14;81.96;98847.56;4169356;28;20048;-72
2022/01/30 03:08:42;;;;;;;9.15;1.98;;;;;;;3.21;80.43;98840.50;4170284;28;20701;-72
2022/01/30 03:10:43;;;;;;;5.80;1.55;;;;;;;3.22;79.42;98850.31;4170152;28;20155;-72
2022/01/30 03:12:44;;;;;;;9.38;1.83;;;;;;;3.23;79.08;98856.59;4170279;28;20041;-71
2022/01/30 03:14:44;;;;;;;13.27;2.85;;;;;;;3.21;78.99;98869.78;4169923;28;20051;-71
2022/01/30 03:16:44;;;;;;;6.00;1.98;;;;;;;3.29;78.36;98858.84;4169280;28;20501;-71
2022/01/30 03:18:45;;;;;;;9.25;2.60;;;;;;;3.22;78.65;98863.97;4170817;28;20297;-71
2022/01/30 03:20:47;;;;;;;5.97;1.83;;;;;;;3.19;79.27;98844.69;4170522;28;20045;-71
2022/01/30 03:22:47;;;;;;;8.30;2.30;;;;;;;3.17;78.45;98860.63;4170399;28;20045;-71
2022/01/30 03:24:48;;;;;;;9.30;2.20;;;;;;;3.17;78.82;98855.16;4170575;28;20051;-71
2022/01/30 03:26:48;;;;;;;13.32;3.00;;;;;;;3.26;77.80;98864.97;4169698;28;20041;-71
2022/01/30 03:28:51;;;;;;;11.57;2.60;;;;;;;3.26;78.02;98864.16;4170392;28;20381;-71
2022/01/30 03:30:56;;;;;;;13.02;2.47;;;;;;;3.15;79.69;98868.34;4168968;28;20049;-71
2022/01/30 03:32:56;;;;;;;10.63;2.58;;;;;;;3.17;79.40;98866.09;4169681;28;20036;-71
2022/01/30 03:34:57;;;;;;;7.30;1.90;;;;;;;3.17;79.15;98853.22;4170450;28;20531;-71
2022/01/30 03:36:57;;;;;;;10.10;2.70;;;;;;;3.19;79.06;98875.56;4169222;28;20056;-71
2022/01/30 03:38:58;;;;;;;8.73;2.65;;;;;;;3.23;78.45;98894.91;4169730;28;20087;-71
2022/01/30 03:40:59;;;;;;;6.55;1.73;;;;;;;3.25;77.92;98876.22;4170422;28;20128;-71
2022/01/30 03:42:59;;;;;;;8.75;1.83;;;;;;;3.22;78.40;98877.66;4170244;28;20095;-71
2022/01/30 03:44:59;;;;;;;8.07;1.85;;;;;;;3.28;77.54;98886.50;4170076;28;20049;-71
2022/01/30 03:46:59;;;;;;;7.32;1.50;;;;;;;3.27;77.78;98890.38;4168772;28;20128;-71
2022/01/30 03:49:00;;;;;;;10.63;2.20;;;;;;;3.27;77.14;98891.19;4170113;28;20412;-71
2022/01/30 03:51:00;;;;;;;7.18;2.13;;;;;;;3.36;76.52;98892.00;4169810;28;20377;-71
2022/01/30 03:53:01;;;;;;;6.93;2.88;;;;;;;3.37;75.79;98892.78;4169980;28;20054;-71
2022/01/30 03:55:02;;;;;;;9.48;1.98;;;;;;;3.41;75.42;98901.19;4170183;28;20041;-71
2022/01/30 03:57:03;;;;;;;9.02;1.98;;;;;;;3.35;75.93;98889.59;4169035;28;20563;-71
2022/01/30 03:59:04;;;;;;;12.07;2.47;;;;;;;3.35;75.08;98878.66;4169987;28;20427;-71
2022/01/30 04:01:05;;;;;;;7.65;2.33;;;;;;;3.43;73.96;98891.53;4169616;28;20148;-71
2022/01/30 04:03:05;;;;;;;7.95;2.30;;;;;;;3.44;74.29;98892.31;4169583;28;20047;-71
2022/01/30 04:05:06;;;;;;;15.73;2.55;;;;;;;3.42;74.32;98898.13;4169830;28;20049;-71
2022/01/30 04:07:06;;;;;;;9.70;1.67;;;;;;;3.47;73.82;98900.69;4168847;28;20521;-71
2022/01/30 04:09:07;;;;;;;10.63;2.70;;;;;;;3.48;74.06;98915.19;4170161;28;20048;-71
2022/01/30 04:11:08;;;;;;;7.55;1.77;;;;;;;3.48;73.28;98899.59;4169379;28;20037;-71
2022/01/30 04:13:08;;;;;;;8.57;2.13;;;;;;;3.47;72.74;98892.47;4169736;28;20171;-71
2022/01/30 04:15:09;;;;;;;7.28;1.90;;;;;;;3.50;73.10;98900.06;4169913;28;20063;-71
2022/01/30 04:17:13;;;;;;;8.50;2.38;;;;;;;3.54;72.61;98905.69;4168263;28;20045;-71
2022/01/30 04:19:13;;;;;;;4.38;1.75;;;;;;;3.60;72.10;98899.72;4169630;28;20051;-71
2022/01/30 04:21:14;;;;;;;15.57;2.47;;;;;;;3.53;72.10;98883.00;4169555;28;20081;-71
2022/01/30 04:23:14;;;;;;;6.75;2.13;;;;;;;3.43;72.53;98888.78;4170015;28;20048;-71
2022/01/30 04:25:14;;;;;;;9.85;2.20;;;;;;;3.47;72.93;98886.19;4169144;28;20461;-71
2022/01/30 04:27:15;;;;;;;7.43;1.80;;;;;;;3.46;72.40;98898.28;4168739;28;20081;-71
2022/01/30 04:29:15;;;;;;;7.32;1.65;;;;;;;3.49;72.21;98892.97;4170024;28;20072;-71
2022/01/30 04:31:16;;;;;;;6.07;1.85;;;;;;;3.47;72.54;98897.94;4169120;28;20049;-71
2022/01/30 04:33:16;;;;;;;7.93;1.65;;;;;;;3.49;72.58;98900.38;4169488;28;20091;-71
2022/01/30 04:35:25;;;;;;;10.60;1.92;;;;;;;3.44;72.76;98904.06;4169554;28;20364;-72
2022/01/30 04:37:56;;;;;;;8.15;2.10;;;;;;;3.45;72.55;98910.34;4168477;28;20171;-71
2022/01/30 04:40:38;;;;;;;6.38;1.95;;;;;;;3.55;71.73;98908.09;4168430;28;20041;-71
2022/01/30 05:03:03;;;;;;;5.20;1.45;;;;;;;3.57;70.26;98919.53;4169060;28;20068;-71
2022/01/30 05:07:28;;;;;;;10.23;2.10;;;;;;;3.54;71.14;98902.94;4168437;28;20503;-71
2022/01/30 05:09:29;;;;;;;8.75;1.83;;;;;;;3.54;70.52;98919.34;4169084;28;20037;-71
2022/01/30 05:11:29;;;;;;;6.50;1.55;;;;;;;3.50;71.26;98912.94;4169262;28;20476;-71
2022/01/30 05:13:32;;;;;;;11.85;2.30;;;;;;;3.54;71.26;98920.16;4168848;28;20850;-71
2022/01/30 05:15:33;;;;;;;6.82;1.83;;;;;;;3.57;70.89;98921.47;4169020;28;20202;-71
2022/01/30 05:17:33;;;;;;;8.15;1.65;;;;;;;3.50;71.58;98911.00;4168358;28;20492;-71
2022/01/30 05:19:34;;;;;;;14.25;3.13;;;;;;;3.44;71.89;98912.28;4169341;28;20287;-71
2022/01/30 05:21:35;;;;;;;9.38;2.00;;;;;;;3.44;71.54;98914.22;4169060;28;20044;-71
2022/01/30 05:23:35;;;;;;;11.63;1.75;;;;;;;3.48;71.68;98909.72;4168800;28;20984;-71
2022/01/30 05:25:37;;;;;;;8.07;2.38;;;;;;;3.40;72.19;98911.31;4169173;28;20111;-71
2022/01/30 05:27:38;;;;;;;6.25;2.05;;;;;;;3.46;70.88;98918.22;4168358;28;20072;-71
2022/01/30 05:29:38;;;;;;;7.18;1.58;;;;;;;3.53;70.92;98917.75;4168759;28;20463;-71
2022/01/30 05:31:39;;;;;;;9.52;1.90;;;;;;;3.53;70.33;98934.16;4168781;28;20041;-71
2022/01/30 05:33:39;;;;;;;5.20;1.27;;;;;;;3.61;70.03;98947.06;4169038;28;20118;-71
2022/01/30 05:35:40;;;;;;;8.45;2.63;;;;;;;3.53;70.57;98945.91;4168851;28;20420;-71
2022/01/30 05:37:42;;;;;;;8.55;1.60;;;;;;;3.52;70.94;98946.25;4168123;28;20632;-71
2022/01/30 05:39:42;;;;;;;10.25;2.22;;;;;;;3.51;71.15;98959.13;4169044;28;20127;-71
2022/01/30 05:41:43;;;;;;;6.05;1.83;;;;;;;3.51;70.74;98952.84;4168717;28;20119;-71
2022/01/30 05:43:46;;;;;;;9.48;2.00;;;;;;;3.47;71.16;98958.13;4168477;28;20045;-71
2022/01/30 05:45:54;;;;;;;9.70;1.80;;;;;;;3.49;70.78;98969.59;4168424;28;20076;-71
2022/01/30 05:48:02;;;;;;;9.20;1.60;;;;;;;3.54;69.48;98957.66;4167962;28;20103;-71
2022/01/30 05:50:03;;;;;;;3.80;1.55;;;;;;;3.55;69.59;98959.28;4168768;28;20043;-71
2022/01/30 05:52:04;;;;;;;4.63;1.83;;;;;;;3.54;69.60;98954.94;4169168;28;20112;-72
2022/01/30 05:54:04;;;;;;;6.53;1.60;;;;;;;3.55;69.48;98962.81;4168680;28;20256;-72
2022/01/30 05:56:05;;;;;;;6.40;1.55;;;;;;;3.56;69.62;98993.75;4168643;28;20078;-72
2022/01/30 05:58:05;;;;;;;13.77;2.10;;;;;;;3.56;69.77;98975.41;4167360;28;20040;-72
2022/01/30 06:00:09;;;;;;;17.52;2.47;;;;;;;3.44;69.94;98967.00;4169216;28;20037;-71
2022/01/30 06:02:09;;;;;;;8.18;1.70;;;;;;;3.43;69.32;98967.31;4171201;28;20166;-71
2022/01/30 06:04:10;;;;;;;7.50;2.13;;;;;;;3.48;69.75;98981.66;4171563;28;20528;-71
2022/01/30 06:06:10;;;;;;;8.70;2.53;;;;;;;3.43;69.25;98972.78;4171814;28;20458;-71
2022/01/30 06:08:14;;;;;;;7.18;1.60;;;;;;;3.46;68.90;98972.94;4171198;28;20029;-71
2022/01/30 06:10:15;;;;;;;9.30;2.05;;;;;;;3.45;68.81;98957.66;4171559;28;20056;-71
2022/01/30 06:12:15;;;;;;;9.93;2.28;;;;;;;3.44;69.17;98957.97;4171399;28;20485;-71
2022/01/30 06:14:17;;;;;;;7.82;2.10;;;;;;;3.40;68.78;98959.75;4172144;28;20039;-71
2022/01/30 06:16:17;;;;;;;6.63;1.60;;;;;;;3.40;69.34;98955.09;4171861;28;20071;-71
2022/01/30 06:18:18;;;;;;;8.88;1.92;;;;;;;3.36;69.20;98946.69;4170674;28;20033;-71
2022/01/30 06:20:18;;;;;;;5.28;1.80;;;;;;;3.32;69.49;98948.47;4171448;28;20028;-71
2022/01/30 06:22:18;;;;;;;5.13;1.42;;;;;;;3.31;69.09;98915.94;4171995;28;20041;-71
2022/01/30 06:24:18;;;;;;;11.13;1.75;;;;;;;3.31;69.06;98903.09;4171324;28;20040;-71
2022/01/30 06:26:19;;;;;;;10.88;2.47;;;;;;;3.27;69.20;98917.72;4171076;28;20598;-71
2022/01/30 06:28:20;;;;;;;8.60;2.65;;;;;;;3.29;69.00;98899.06;4171072;28;20032;-71
2022/01/30 06:30:21;;;;;;;13.40;2.88;;;;;;;3.24;69.34;98910.16;4171373;28;20496;-71
2022/01/30 06:32:22;;;;;;;9.23;2.03;;;;;;;3.21;69.75;98908.06;4171340;28;20044;-71
2022/01/30 06:34:22;;;;;;;7.95;2.00;;;;;;;3.24;69.92;98929.31;4171077;28;20412;-71
2022/01/30 06:36:23;;;;;;;11.60;1.42;;;;;;;3.19;69.29;98927.53;4171433;28;20049;-71
2022/01/30 06:38:23;;;;;;;4.72;1.55;;;;;;;3.25;69.47;98915.31;4170576;28;20076;-71
2022/01/30 06:40:23;;;;;;;6.07;1.88;;;;;;;3.21;69.98;98914.31;4171088;28;20285;-71
2022/01/30 06:42:24;;;;;;;7.97;1.52;;;;;;;3.14;70.56;98907.72;4171131;28;20045;-71
2022/01/30 06:44:25;;;;;;;8.10;1.98;;;;;;;3.08;70.41;98902.41;4170938;28;20137;-71
2022/01/30 06:46:25;;;;;;;12.35;2.78;;;;;;;3.13;70.20;98900.63;4170781;28;20045;-71
2022/01/30 06:48:25;;;;;;;4.93;1.70;;;;;;;3.16;69.67;98895.34;4170614;28;20295;-71
2022/01/30 06:50:25;;;;;;;6.80;1.95;;;;;;;3.14;70.01;98919.44;4171084;28;20277;-71
2022/01/30 06:52:26;;;;;;;8.95;2.97;;;;;;;3.18;69.55;98875.91;4171215;28;20045;-71
2022/01/30 06:54:27;;;;;;;11.13;2.47;;;;;;;3.12;69.79;98913.50;4171449;28;20341;-71
2022/01/30 06:56:27;;;;;;;7.25;2.63;;;;;;;3.06;70.36;98909.31;4170582;28;20462;-71
2022/01/30 06:58:27;;;;;;;8.70;2.40;;;;;;;3.11;70.20;98900.97;4170301;28;20851;-71
2022/01/30 07:00:28;;;;;;;4.07;1.60;;;;;;;3.10;70.48;98908.38;4170824;28;20837;-71
2022/01/30 07:02:28;;;;;;;6.50;2.55;;;;;;;3.09;70.56;98901.28;4171041;28;20048;-71
2022/01/30 07:04:28;;;;;;;10.05;2.10;;;;;;;3.15;70.16;98914.81;4170776;28;20049;-71
2022/01/30 07:06:29;;;;;;;10.82;2.88;;;;;;;3.09;70.34;98931.38;4170504;28;20054;-71
2022/01/30 07:08:30;;;;;;;8.35;2.40;;;;;;;3.13;69.56;98926.06;4170810;28;20289;-71
2022/01/30 07:10:30;;;;;;;9.13;2.30;;;;;;;3.15;69.68;98910.16;4170103;28;20041;-71
2022/01/30 07:12:30;;;;;;;8.82;2.08;;;;;;;3.20;68.97;98937.34;4169875;28;20063;-71
2022/01/30 07:14:31;;;;;;;5.18;1.90;;;;;;;3.17;68.75;98931.72;4170652;28;20079;-71
2022/01/30 07:16:31;;;;;;;9.15;1.95;;;;;;;3.18;69.27;98944.25;4170357;28;20077;-71
2022/01/30 07:18:31;;;;;;;7.72;2.40;;;;;;;3.16;69.37;98943.78;4170330;28;20049;-71
2022/01/30 07:20:32;;;;;;;9.90;1.88;;;;;;;3.16;69.29;98944.56;4168823;28;20053;-71
2022/01/30 07:22:32;;;;;;;9.43;1.95;;;;;;;3.24;68.33;98953.94;4169894;28;20059;-71
2022/01/30 07:24:33;;;;;;;12.25;2.65;;;;;;;3.18;68.57;98963.38;4168693;28;20112;-71
2022/01/30 07:26:33;;;;;;;9.45;2.08;;;;;;;3.20;68.83;98977.53;4165109;28;20504;-71
2022/01/30 07:28:33;;;;;;;6.45;2.22;;;;;;;3.19;68.94;98982.22;4165259;28;20079;-71
2022/01/30 07:30:35;;;;;;;9.73;2.88;;;;;;;3.18;68.85;98980.59;4166304;28;20061;-71
2022/01/30 07:32:35;;;;;;;6.85;1.92;;;;;;;3.17;69.04;98976.25;4165993;28;20481;-71
2022/01/30 07:34:36;;;;;;;7.03;1.73;;;;;;;3.16;68.92;98991.06;4165071;28;20075;-71
2022/01/30 07:36:37;;;;;;;7.95;2.58;;;;;;;3.13;69.19;98988.13;4160710;28;20045;-71
2022/01/30 07:38:38;;;;;;;7.32;1.90;;;;;;;3.12;69.11;98981.84;4160578;28;20829;-71
2022/01/30 07:40:38;;;;;;;6.20;2.15;;;;;;;3.16;68.89;98974.66;4184025;28;20048;-71
2022/01/30 07:42:39;;;;;;;5.07;2.10;;;;;;;3.13;69.56;98979.94;4186117;28;20044;-71
2022/01/30 07:44:39;;;;;;;7.63;1.90;;;;;;;3.12;69.43;98992.78;4186978;28;20036;-71
2022/01/30 07:46:40;;;;;;;10.30;2.85;;;;;;;3.12;69.77;99006.47;4187221;28;20133;-71
2022/01/30 07:48:40;;;;;;;17.38;2.60;;;;;;;3.16;69.98;99002.00;4186728;28;20044;-71
2022/01/30 07:50:42;;;;;;;6.38;1.73;;;;;;;3.13;69.63;99008.06;4186026;28;20044;-71
2022/01/30 07:52:42;;;;;;;8.23;2.45;;;;;;;3.12;69.72;99027.53;4187762;28;20226;-71
2022/01/30 07:54:42;;;;;;;5.60;1.80;;;;;;;3.13;69.53;99024.47;4186340;28;20048;-71
2022/01/30 07:56:42;;;;;;;7.13;2.60;;;;;;;3.10;68.75;99008.72;4185636;28;20131;-71
2022/01/30 07:58:43;;;;;;;8.13;1.98;;;;;;;3.17;68.49;99017.28;4185838;28;20095;-71
2022/01/30 08:00:43;;;;;;;11.18;2.28;;;;;;;3.18;68.57;99023.56;4183478;28;20044;-71
2022/01/30 08:02:44;;;;;;;11.25;2.83;;;;;;;3.19;68.47;99050.56;4182813;28;20121;-71
2022/01/30 08:04:44;;;;;;;13.27;2.88;;;;;;;3.19;68.59;99034.16;4186410;28;20047;-70
2022/01/30 08:06:46;;;;;;;8.68;2.78;;;;;;;3.20;68.53;99018.56;4184606;28;20044;-71
2022/01/30 08:08:46;;;;;;;11.43;3.00;;;;;;;3.17;69.65;99033.69;4187150;28;20123;-71
2022/01/30 08:10:47;;;;;;;7.28;2.65;;;;;;;3.19;69.98;99036.09;4186430;28;20303;-71
2022/01/30 08:12:48;;;;;;;7.57;2.40;;;;;;;3.20;68.65;99034.97;4185775;28;20503;-71
2022/01/30 08:14:48;;;;;;;8.77;2.78;;;;;;;3.18;67.93;99064.56;4187741;28;20054;-71
2022/01/30 08:16:49;;;;;;;11.73;2.72;;;;;;;3.20;69.13;99076.00;4185970;28;20090;-71
2022/01/30 08:18:49;;;;;;;10.25;2.40;;;;;;;3.16;68.11;99078.56;4186130;28;20106;-71
2022/01/30 08:20:49;;;;;;;12.00;3.00;;;;;;;3.18;68.61;99064.56;4186370;28;20060;-71
2022/01/30 08:22:52;;;;;;;14.95;2.85;;;;;;;3.16;68.89;99047.69;4185793;28;20044;-71
2022/01/30 08:24:52;;;;;;;14.20;3.35;;;;;;;3.17;68.16;99071.97;4186179;28;20052;-71
2022/01/30 08:26:53;;;;;;;12.27;2.28;;;;;;;3.16;68.78;99103.16;4185383;28;20052;-71
2022/01/30 08:28:53;;;;;;;9.02;2.92;;;;;;;3.15;68.65;99085.16;4185918;28;20148;-71
2022/01/30 08:30:54;;;;;;;13.43;2.33;;;;;;;3.25;67.48;99084.06;4185965;28;20131;-71
2022/01/30 08:32:54;;;;;;;7.30;2.05;;;;;;;3.21;68.10;99099.47;4186195;28;20489;-71
2022/01/30 08:34:54;;;;;;;13.27;3.17;;;;;;;3.20;68.29;99076.00;4185857;28;20049;-71
2022/01/30 08:36:55;;;;;;;11.45;2.63;;;;;;;3.22;67.74;99071.00;4185025;28;20122;-71
2022/01/30 08:38:55;;;;;;;16.83;3.38;;;;;;;3.29;67.83;99104.19;4185642;28;20052;-71
2022/01/30 08:40:55;;;;;;;12.05;2.80;;;;;;;3.23;67.64;99089.06;4185881;28;20169;-71
2022/01/30 08:42:56;;;;;;;12.98;3.17;;;;;;;3.28;67.92;99097.09;4185939;28;20044;-71
2022/01/30 08:44:56;;;;;;;13.25;2.67;;;;;;;3.23;68.14;99121.88;4186099;28;20051;-71
2022/01/30 08:46:56;;;;;;;16.00;2.67;;;;;;;3.19;68.72;99109.94;4185207;28;20378;-71
2022/01/30 08:48:57;;;;;;;12.40;4.75;;;;;;;3.08;69.15;99104.72;4184468;28;20528;-71
2022/01/30 08:50:57;;;;;;;12.63;2.97;;;;;;;3.13;68.79;99139.31;4185312;28;20055;-72
2022/01/30 08:52:57;;;;;;;10.93;2.35;;;;;;;3.20;66.18;99111.53;4185848;28;20079;-71
2022/01/30 08:54:58;;;;;;;17.38;3.38;;;;;;;3.23;64.76;99106.25;4185621;28;20084;-71
2022/01/30 08:56:58;;;;;;;11.63;3.25;;;;;;;3.32;66.38;99117.25;4184853;28;20052;-71
2022/01/30 08:58:58;;;;;;;16.02;4.97;;;;;;;3.30;66.63;99109.31;4186030;28;20488;-71
2022/01/30 09:00:59;;;;;;;20.90;6.07;;;;;;;3.31;67.22;99132.84;4185482;28;20044;-71
2022/01/30 09:02:59;;;;;;;14.10;5.05;;;;;;;3.32;67.77;99153.59;4185775;28;20075;-71
2022/01/30 09:05:00;;;;;;;13.18;3.10;;;;;;;3.27;67.44;99115.44;4185981;28;20052;-71
2022/01/30 09:07:00;;;;;;;13.75;5.20;;;;;;;3.27;66.12;99141.97;4184631;28;20095;-71
2022/01/30 09:09:03;;;;;;;11.00;3.53;;;;;;;3.28;66.47;99147.13;4185683;28;20086;-71
2022/01/30 09:11:05;;;;;;;21.70;4.00;;;;;;;3.29;66.73;99165.16;4185957;28;20178;-71
2022/01/30 09:13:06;;;;;;;20.65;3.85;;;;;;;3.26;67.58;99179.47;4185996;28;20048;-71
2022/01/30 09:15:10;;;;;;;11.30;3.40;;;;;;;3.21;67.14;99179.59;4185987;28;20534;-71
2022/01/30 09:17:13;;;;;;;14.02;2.90;;;;;;;3.20;67.21;99177.97;4184733;28;20053;-71
2022/01/30 09:19:15;;;;;;;18.48;2.83;;;;;;;3.22;67.17;99194.88;4185474;28;20044;-71
2022/01/30 09:21:15;;;;;;;48.45;15.25;;;;;;;3.23;66.22;99184.75;4185365;28;20055;-71
2022/01/30 09:23:15;;;;;;;15.40;4.25;;;;;;;3.28;66.65;99179.94;4185663;28;20488;-71
2022/01/30 09:25:15;;;;;;;8.00;3.10;;;;;;;3.30;65.85;99185.09;4185757;28;20054;-71
2022/01/30 09:27:16;;;;;;;9.05;3.58;;;;;;;3.27;66.91;99200.22;4184591;28;20055;-71
2022/01/30 09:29:16;;;;;;;8.95;3.63;;;;;;;3.26;66.64;99190.41;4185371;28;20468;-71
2022/01/30 09:31:17;;;;;;;18.98;4.55;;;;;;;3.23;67.20;99193.78;4185556;28;20037;-71
2022/01/30 09:33:17;;;;;;;14.68;4.10;;;;;;;3.21;67.67;99186.97;4185772;28;20796;-71
2022/01/30 09:35:17;;;;;;;13.98;4.05;;;;;;;3.27;67.23;99196.69;4185109;28;20291;-71
2022/01/30 09:37:17;;;;;;;19.40;5.22;;;;;;;3.33;67.08;99195.44;4187690;28;20099;-71
2022/01/30 09:39:18;;;;;;;11.70;3.90;;;;;;;3.33;66.84;99190.78;4188548;28;20155;-71
2022/01/30 09:41:20;;;;;;;12.73;3.50;;;;;;;3.34;67.38;99183.38;4188443;28;20048;-71
2022/01/30 09:43:21;;;;;;;12.13;3.57;;;;;;;3.35;66.24;99198.66;4166017;28;20448;-71
2022/01/30 09:45:23;;;;;;;16.13;3.58;;;;;;;3.33;67.14;99201.72;4166455;28;20049;-72
2022/01/30 09:47:23;;;;;;;17.00;4.60;;;;;;;3.30;66.86;99191.38;4171447;28;20544;-72
2022/01/30 09:49:28;;;;;;;16.17;3.22;;;;;;;3.31;66.34;99220.38;4172052;28;20045;-72
2022/01/30 09:51:30;;;;;;;14.63;3.40;;;;;;;3.31;66.81;99193.03;4171438;28;20045;-71
2022/01/30 09:53:31;;;;;;;16.25;3.63;;;;;;;3.31;65.91;99206.69;4172034;28;20342;-72
2022/01/30 09:55:32;;;;;;;9.48;3.30;;;;;;;3.39;65.93;99210.56;4172236;28;20080;-71
2022/01/30 09:57:32;;;;;;;16.83;3.95;;;;;;;3.40;66.38;99214.16;4170806;28;20088;-71
2022/01/30 09:59:32;;;;;;;17.13;4.00;;;;;;;3.34;67.07;99211.53;4171976;28;20400;-71
2022/01/30 10:01:36;;;;;;;19.92;4.18;;;;;;;3.29;68.13;99219.84;4172181;28;20125;-71
2022/01/30 10:03:36;;;;;;;16.08;3.13;;;;;;;3.29;68.07;99225.31;4172049;28;20358;-71
2022/01/30 10:05:38;;;;;;;12.38;2.70;;;;;;;3.31;68.83;99223.09;4171503;28;20048;-71
2022/01/30 10:07:51;;;;;;;10.87;3.33;;;;;;;3.21;70.16;99209.66;4170704;28;20485;-71
2022/01/30 10:09:51;;;;;;;14.70;3.55;;;;;;;3.28;69.57;99223.72;4171416;28;20080;-71
2022/01/30 10:12:08;;;;;;;18.05;3.92;;;;;;;3.31;69.91;99203.13;4171332;28;20174;-71
2022/01/30 10:14:11;;;;;;;7.40;2.67;;;;;;;3.34;69.80;99219.75;4171256;28;20400;-71
2022/01/30 10:16:12;;;;;;;18.33;5.00;;;;;;;3.33;70.06;99217.31;4171604;28;20033;-71
2022/01/30 10:18:12;;;;;;;19.75;4.43;;;;;;;3.37;69.22;99215.56;4170977;28;20060;-71
2022/01/30 10:20:15;;;;;;;10.88;3.47;;;;;;;3.44;69.04;99218.66;4171072;28;20424;-71
2022/01/30 10:22:15;;;;;;;15.88;5.40;;;;;;;3.43;69.83;99236.19;4171420;28;20465;-71
2022/01/30 10:24:27;;;;;;;12.35;3.38;;;;;;;3.35;70.16;99228.75;4171331;28;20025;-71
2022/01/30 10:26:31;;;;;;;14.75;3.78;;;;;;;3.42;70.29;99222.84;4170727;28;20507;-71
2022/01/30 10:28:32;;;;;;;16.70;3.13;;;;;;;3.40;71.59;99238.78;4171300;28;20060;-71
2022/01/30 10:30:40;;;;;;;20.17;3.88;;;;;;;3.38;74.46;99245.34;4171268;28;20482;-71